sensor_id;sensor_type;location;lat;lon;timestamp;P1;durP1;ratioP1;P2;durP2;ratioP2
73678;SDS011;61978;52.742;16.962;2023-03-03T00:00:31;113.50;;;23.40;;
73678;SDS011;61978;52.742;16.962;2023-03-03T00:02:57;214.90;;;28.10;;
73678;SDS011;61978;52.742;16.962;2023-03-03T00:05:25;194.20;;;28.40;;
73678;SDS011;61978;52.742;16.962;2023-03-03T00:07:52;165.20;;;25.10;;
73678;SDS011;61978;52.742;16.962;2023-03-03T00:10:18;193.90;;;26.50;;
73678;SDS011;61978;52.742;16.962;2023-03-03T00:12:45;164.00;;;22.90;;
73678;SDS011;61978;52.742;16.962;2023-03-03T00:15:14;212.10;;;26.40;;
73678;SDS011;61978;52.742;16.962;2023-03-03T00:17:40;270.20;;;28.40;;
73678;SDS011;61978;52.742;16.962;2023-03-03T00:22:50;135.40;;;22.20;;
73678;SDS011;61978;52.742;16.962;2023-03-03T00:25:29;139.10;;;20.60;;
73678;SDS011;61978;52.742;16.962;2023-03-03T00:30:52;252.90;;;26.00;;
73678;SDS011;61978;52.742;16.962;2023-03-03T00:33:21;188.90;;;23.40;;
73678;SDS011;61978;52.742;16.962;2023-03-03T00:35:53;162.20;;;21.00;;
73678;SDS011;61978;52.742;16.962;2023-03-03T00:38:20;196.60;;;23.60;;
73678;SDS011;61978;52.742;16.962;2023-03-03T00:40:46;147.60;;;19.80;;
73678;SDS011;61978;52.742;16.962;2023-03-03T00:45:51;169.70;;;24.10;;
73678;SDS011;61978;52.742;16.962;2023-03-03T00:48:27;162.70;;;21.10;;
73678;SDS011;61978;52.742;16.962;2023-03-03T00:50:57;235.10;;;25.20;;
73678;SDS011;61978;52.742;16.962;2023-03-03T00:53:24;171.70;;;20.50;;
73678;SDS011;61978;52.742;16.962;2023-03-03T00:55:51;232.90;;;25.30;;
73678;SDS011;61978;52.742;16.962;2023-03-03T00:58:17;137.90;;;21.70;;
73678;SDS011;61978;52.742;16.962;2023-03-03T01:00:47;141.70;;;21.90;;
73678;SDS011;61978;52.742;16.962;2023-03-03T01:03:15;169.70;;;24.10;;
73678;SDS011;61978;52.742;16.962;2023-03-03T01:05:41;147.00;;;23.10;;
73678;SDS011;61978;52.742;16.962;2023-03-03T01:08:08;146.70;;;24.70;;
73678;SDS011;61978;52.742;16.962;2023-03-03T01:10:35;124.80;;;23.70;;
73678;SDS011;61978;52.742;16.962;2023-03-03T01:13:03;101.30;;;21.40;;
73678;SDS011;61978;52.742;16.962;2023-03-03T01:15:30;137.30;;;22.40;;
73678;SDS011;61978;52.742;16.962;2023-03-03T01:17:56;125.90;;;23.10;;
73678;SDS011;61978;52.742;16.962;2023-03-03T01:20:22;145.80;;;22.80;;
73678;SDS011;61978;52.742;16.962;2023-03-03T01:22:48;183.20;;;25.00;;
73678;SDS011;61978;52.742;16.962;2023-03-03T01:25:14;126.10;;;23.60;;
73678;SDS011;61978;52.742;16.962;2023-03-03T01:27:40;115.10;;;25.40;;
73678;SDS011;61978;52.742;16.962;2023-03-03T01:30:06;76.30;;;20.60;;
73678;SDS011;61978;52.742;16.962;2023-03-03T01:32:32;167.30;;;25.00;;
73678;SDS011;61978;52.742;16.962;2023-03-03T01:34:59;139.80;;;25.30;;
73678;SDS011;61978;52.742;16.962;2023-03-03T01:37:25;190.00;;;26.30;;
73678;SDS011;61978;52.742;16.962;2023-03-03T01:39:52;175.60;;;28.80;;
73678;SDS011;61978;52.742;16.962;2023-03-03T01:42:19;189.00;;;27.30;;
73678;SDS011;61978;52.742;16.962;2023-03-03T01:44:45;219.00;;;26.50;;
73678;SDS011;61978;52.742;16.962;2023-03-03T01:47:18;145.70;;;24.70;;
73678;SDS011;61978;52.742;16.962;2023-03-03T01:49:47;96.80;;;22.80;;
73678;SDS011;61978;52.742;16.962;2023-03-03T01:52:21;190.20;;;28.10;;
73678;SDS011;61978;52.742;16.962;2023-03-03T01:54:59;160.60;;;24.60;;
73678;SDS011;61978;52.742;16.962;2023-03-03T01:57:31;178.20;;;25.90;;
73678;SDS011;61978;52.742;16.962;2023-03-03T01:59:58;126.90;;;19.70;;
73678;SDS011;61978;52.742;16.962;2023-03-03T02:02:25;252.40;;;27.20;;
73678;SDS011;61978;52.742;16.962;2023-03-03T02:04:52;115.50;;;22.60;;
73678;SDS011;61978;52.742;16.962;2023-03-03T02:07:18;120.10;;;24.50;;
73678;SDS011;61978;52.742;16.962;2023-03-03T02:09:53;140.30;;;26.00;;
73678;SDS011;61978;52.742;16.962;2023-03-03T02:12:20;194.00;;;23.40;;
73678;SDS011;61978;52.742;16.962;2023-03-03T02:14:48;230.30;;;26.70;;
73678;SDS011;61978;52.742;16.962;2023-03-03T02:17:14;198.20;;;29.40;;
73678;SDS011;61978;52.742;16.962;2023-03-03T02:19:53;87.10;;;21.20;;
73678;SDS011;61978;52.742;16.962;2023-03-03T02:22:23;91.60;;;18.90;;
73678;SDS011;61978;52.742;16.962;2023-03-03T02:24:55;121.10;;;23.00;;
73678;SDS011;61978;52.742;16.962;2023-03-03T02:27:23;136.60;;;24.50;;
73678;SDS011;61978;52.742;16.962;2023-03-03T02:29:52;166.30;;;26.80;;
73678;SDS011;61978;52.742;16.962;2023-03-03T02:32:19;131.50;;;20.90;;
73678;SDS011;61978;52.742;16.962;2023-03-03T02:34:47;94.90;;;16.70;;
73678;SDS011;61978;52.742;16.962;2023-03-03T02:37:14;135.30;;;20.20;;
73678;SDS011;61978;52.742;16.962;2023-03-03T02:39:39;178.30;;;22.70;;
73678;SDS011;61978;52.742;16.962;2023-03-03T02:42:07;126.60;;;23.70;;
73678;SDS011;61978;52.742;16.962;2023-03-03T02:44:44;77.40;;;17.50;;
73678;SDS011;61978;52.742;16.962;2023-03-03T02:47:10;182.70;;;19.80;;
73678;SDS011;61978;52.742;16.962;2023-03-03T02:49:37;166.10;;;20.90;;
73678;SDS011;61978;52.742;16.962;2023-03-03T02:52:05;123.90;;;18.20;;
73678;SDS011;61978;52.742;16.962;2023-03-03T02:54:35;91.40;;;15.70;;
73678;SDS011;61978;52.742;16.962;2023-03-03T02:57:02;136.50;;;18.70;;
73678;SDS011;61978;52.742;16.962;2023-03-03T02:59:28;53.20;;;15.00;;
73678;SDS011;61978;52.742;16.962;2023-03-03T03:01:54;101.80;;;22.00;;
73678;SDS011;61978;52.742;16.962;2023-03-03T03:04:22;106.00;;;21.50;;
73678;SDS011;61978;52.742;16.962;2023-03-03T03:06:49;113.50;;;19.80;;
73678;SDS011;61978;52.742;16.962;2023-03-03T03:09:15;55.80;;;17.50;;
73678;SDS011;61978;52.742;16.962;2023-03-03T03:11:42;64.10;;;17.60;;
73678;SDS011;61978;52.742;16.962;2023-03-03T03:14:09;120.70;;;19.50;;
73678;SDS011;61978;52.742;16.962;2023-03-03T03:16:36;61.90;;;13.20;;
73678;SDS011;61978;52.742;16.962;2023-03-03T03:19:02;70.10;;;13.70;;
73678;SDS011;61978;52.742;16.962;2023-03-03T03:21:29;53.60;;;14.10;;
73678;SDS011;61978;52.742;16.962;2023-03-03T03:23:56;56.90;;;12.30;;
73678;SDS011;61978;52.742;16.962;2023-03-03T03:26:23;57.40;;;14.30;;
73678;SDS011;61978;52.742;16.962;2023-03-03T03:28:49;51.50;;;14.70;;
73678;SDS011;61978;52.742;16.962;2023-03-03T03:31:15;61.10;;;15.60;;
73678;SDS011;61978;52.742;16.962;2023-03-03T03:33:42;72.00;;;17.50;;
73678;SDS011;61978;52.742;16.962;2023-03-03T03:36:08;78.40;;;20.00;;
73678;SDS011;61978;52.742;16.962;2023-03-03T03:38:34;55.60;;;18.00;;
73678;SDS011;61978;52.742;16.962;2023-03-03T03:41:02;51.70;;;15.10;;
73678;SDS011;61978;52.742;16.962;2023-03-03T03:43:28;67.70;;;17.00;;
73678;SDS011;61978;52.742;16.962;2023-03-03T03:45:55;47.20;;;16.60;;
73678;SDS011;61978;52.742;16.962;2023-03-03T03:48:21;68.60;;;18.80;;
73678;SDS011;61978;52.742;16.962;2023-03-03T03:50:47;60.40;;;13.80;;
73678;SDS011;61978;52.742;16.962;2023-03-03T03:53:13;66.40;;;16.30;;
73678;SDS011;61978;52.742;16.962;2023-03-03T03:55:39;56.30;;;16.60;;
73678;SDS011;61978;52.742;16.962;2023-03-03T03:58:06;72.20;;;16.80;;
73678;SDS011;61978;52.742;16.962;2023-03-03T04:00:32;94.10;;;16.40;;
73678;SDS011;61978;52.742;16.962;2023-03-03T04:02:58;69.30;;;14.40;;
73678;SDS011;61978;52.742;16.962;2023-03-03T04:05:25;58.60;;;15.20;;
73678;SDS011;61978;52.742;16.962;2023-03-03T04:07:51;82.30;;;18.70;;
73678;SDS011;61978;52.742;16.962;2023-03-03T04:10:17;86.70;;;16.80;;
73678;SDS011;61978;52.742;16.962;2023-03-03T04:12:44;63.90;;;17.70;;
73678;SDS011;61978;52.742;16.962;2023-03-03T04:15:12;66.40;;;17.10;;
73678;SDS011;61978;52.742;16.962;2023-03-03T04:17:38;80.90;;;15.60;;
73678;SDS011;61978;52.742;16.962;2023-03-03T04:20:05;51.20;;;14.70;;
73678;SDS011;61978;52.742;16.962;2023-03-03T04:22:31;31.10;;;11.90;;
73678;SDS011;61978;52.742;16.962;2023-03-03T04:25:04;26.20;;;8.20;;
73678;SDS011;61978;52.742;16.962;2023-03-03T04:27:34;17.60;;;9.20;;
73678;SDS011;61978;52.742;16.962;2023-03-03T04:30:01;40.10;;;14.90;;
73678;SDS011;61978;52.742;16.962;2023-03-03T04:32:28;58.70;;;15.70;;
73678;SDS011;61978;52.742;16.962;2023-03-03T04:34:55;45.80;;;16.30;;
73678;SDS011;61978;52.742;16.962;2023-03-03T04:37:21;58.40;;;17.80;;
73678;SDS011;61978;52.742;16.962;2023-03-03T04:39:47;57.30;;;15.90;;
73678;SDS011;61978;52.742;16.962;2023-03-03T04:42:13;99.20;;;16.70;;
73678;SDS011;61978;52.742;16.962;2023-03-03T04:44:40;80.40;;;16.70;;
73678;SDS011;61978;52.742;16.962;2023-03-03T04:47:06;80.10;;;15.80;;
73678;SDS011;61978;52.742;16.962;2023-03-03T04:49:32;64.30;;;17.00;;
73678;SDS011;61978;52.742;16.962;2023-03-03T04:51:58;57.80;;;17.20;;
73678;SDS011;61978;52.742;16.962;2023-03-03T04:54:24;50.50;;;17.10;;
73678;SDS011;61978;52.742;16.962;2023-03-03T04:56:50;51.00;;;17.20;;
73678;SDS011;61978;52.742;16.962;2023-03-03T04:59:16;35.80;;;13.40;;
73678;SDS011;61978;52.742;16.962;2023-03-03T05:01:42;39.60;;;13.30;;
73678;SDS011;61978;52.742;16.962;2023-03-03T05:04:11;33.60;;;13.00;;
73678;SDS011;61978;52.742;16.962;2023-03-03T05:06:38;33.90;;;12.90;;
73678;SDS011;61978;52.742;16.962;2023-03-03T05:09:05;35.20;;;14.00;;
73678;SDS011;61978;52.742;16.962;2023-03-03T05:11:30;31.70;;;13.50;;
73678;SDS011;61978;52.742;16.962;2023-03-03T05:13:57;38.70;;;14.00;;
73678;SDS011;61978;52.742;16.962;2023-03-03T05:16:23;42.30;;;13.80;;
73678;SDS011;61978;52.742;16.962;2023-03-03T05:18:48;37.90;;;13.00;;
73678;SDS011;61978;52.742;16.962;2023-03-03T05:21:15;26.00;;;10.10;;
73678;SDS011;61978;52.742;16.962;2023-03-03T05:23:40;37.50;;;14.60;;
73678;SDS011;61978;52.742;16.962;2023-03-03T05:26:06;34.40;;;14.60;;
73678;SDS011;61978;52.742;16.962;2023-03-03T05:28:32;23.10;;;10.60;;
73678;SDS011;61978;52.742;16.962;2023-03-03T05:30:58;32.20;;;14.10;;
73678;SDS011;61978;52.742;16.962;2023-03-03T05:33:24;27.00;;;13.20;;
73678;SDS011;61978;52.742;16.962;2023-03-03T05:35:54;31.20;;;14.50;;
73678;SDS011;61978;52.742;16.962;2023-03-03T05:38:20;22.40;;;9.20;;
73678;SDS011;61978;52.742;16.962;2023-03-03T05:40:46;28.30;;;12.20;;
73678;SDS011;61978;52.742;16.962;2023-03-03T05:43:12;34.40;;;14.50;;
73678;SDS011;61978;52.742;16.962;2023-03-03T05:45:38;46.10;;;18.00;;
73678;SDS011;61978;52.742;16.962;2023-03-03T05:48:03;39.70;;;16.90;;
73678;SDS011;61978;52.742;16.962;2023-03-03T05:50:29;39.10;;;16.50;;
73678;SDS011;61978;52.742;16.962;2023-03-03T05:52:55;34.00;;;13.60;;
73678;SDS011;61978;52.742;16.962;2023-03-03T05:55:21;40.80;;;18.40;;
73678;SDS011;61978;52.742;16.962;2023-03-03T05:57:47;48.40;;;20.20;;
73678;SDS011;61978;52.742;16.962;2023-03-03T06:00:13;41.40;;;18.00;;
73678;SDS011;61978;52.742;16.962;2023-03-03T06:02:39;40.70;;;16.30;;
73678;SDS011;61978;52.742;16.962;2023-03-03T06:05:05;47.00;;;19.20;;
73678;SDS011;61978;52.742;16.962;2023-03-03T06:07:31;67.00;;;33.90;;
73678;SDS011;61978;52.742;16.962;2023-03-03T06:09:57;33.00;;;15.70;;
73678;SDS011;61978;52.742;16.962;2023-03-03T06:12:23;38.70;;;16.90;;
73678;SDS011;61978;52.742;16.962;2023-03-03T06:14:48;46.30;;;22.90;;
73678;SDS011;61978;52.742;16.962;2023-03-03T06:17:14;19.90;;;9.70;;
73678;SDS011;61978;52.742;16.962;2023-03-03T06:19:40;21.20;;;10.70;;
73678;SDS011;61978;52.742;16.962;2023-03-03T06:22:06;24.90;;;10.90;;
73678;SDS011;61978;52.742;16.962;2023-03-03T06:24:32;21.60;;;10.90;;
73678;SDS011;61978;52.742;16.962;2023-03-03T06:26:58;36.40;;;14.90;;
73678;SDS011;61978;52.742;16.962;2023-03-03T06:29:24;39.60;;;19.10;;
73678;SDS011;61978;52.742;16.962;2023-03-03T06:31:49;36.80;;;15.40;;
73678;SDS011;61978;52.742;16.962;2023-03-03T06:34:15;43.60;;;18.10;;
73678;SDS011;61978;52.742;16.962;2023-03-03T06:36:41;45.70;;;17.60;;
73678;SDS011;61978;52.742;16.962;2023-03-03T06:39:07;46.10;;;19.30;;
73678;SDS011;61978;52.742;16.962;2023-03-03T06:41:32;42.10;;;16.70;;
73678;SDS011;61978;52.742;16.962;2023-03-03T06:43:59;52.40;;;21.20;;
73678;SDS011;61978;52.742;16.962;2023-03-03T06:46:25;35.50;;;7.30;;
73678;SDS011;61978;52.742;16.962;2023-03-03T06:48:51;15.50;;;7.00;;
73678;SDS011;61978;52.742;16.962;2023-03-03T06:53:47;136.20;;;28.80;;
73678;SDS011;61978;52.742;16.962;2023-03-03T06:56:12;137.10;;;30.30;;
73678;SDS011;61978;52.742;16.962;2023-03-03T06:58:39;126.30;;;27.30;;
73678;SDS011;61978;52.742;16.962;2023-03-03T07:01:04;121.30;;;30.50;;
73678;SDS011;61978;52.742;16.962;2023-03-03T07:03:35;127.00;;;30.20;;
73678;SDS011;61978;52.742;16.962;2023-03-03T07:06:01;104.60;;;26.90;;
73678;SDS011;61978;52.742;16.962;2023-03-03T07:08:31;107.40;;;27.20;;
73678;SDS011;61978;52.742;16.962;2023-03-03T07:10:59;116.20;;;25.70;;
73678;SDS011;61978;52.742;16.962;2023-03-03T07:13:27;136.40;;;31.60;;
73678;SDS011;61978;52.742;16.962;2023-03-03T07:16:01;103.70;;;23.10;;
73678;SDS011;61978;52.742;16.962;2023-03-03T07:20:54;127.90;;;28.60;;
73678;SDS011;61978;52.742;16.962;2023-03-03T07:23:20;120.20;;;25.30;;
73678;SDS011;61978;52.742;16.962;2023-03-03T07:25:47;108.40;;;23.00;;
73678;SDS011;61978;52.742;16.962;2023-03-03T07:30:45;94.00;;;22.60;;
73678;SDS011;61978;52.742;16.962;2023-03-03T07:33:18;100.70;;;23.10;;
73678;SDS011;61978;52.742;16.962;2023-03-03T07:35:44;78.60;;;17.30;;
73678;SDS011;61978;52.742;16.962;2023-03-03T07:40:57;68.70;;;17.00;;
73678;SDS011;61978;52.742;16.962;2023-03-03T07:43:40;101.40;;;23.20;;
73678;SDS011;61978;52.742;16.962;2023-03-03T07:48:52;104.30;;;24.50;;
73678;SDS011;61978;52.742;16.962;2023-03-03T07:51:20;89.10;;;22.00;;
73678;SDS011;61978;52.742;16.962;2023-03-03T07:53:47;111.50;;;28.80;;
73678;SDS011;61978;52.742;16.962;2023-03-03T07:56:27;99.10;;;24.00;;
73678;SDS011;61978;52.742;16.962;2023-03-03T07:58:54;119.10;;;26.00;;
73678;SDS011;61978;52.742;16.962;2023-03-03T08:03:56;100.30;;;22.70;;
73678;SDS011;61978;52.742;16.962;2023-03-03T08:09:00;112.40;;;25.70;;
73678;SDS011;61978;52.742;16.962;2023-03-03T08:11:27;135.90;;;33.70;;
73678;SDS011;61978;52.742;16.962;2023-03-03T08:13:53;266.30;;;125.10;;
73678;SDS011;61978;52.742;16.962;2023-03-03T08:16:23;133.10;;;70.40;;
73678;SDS011;61978;52.742;16.962;2023-03-03T08:18:51;56.60;;;23.40;;
73678;SDS011;61978;52.742;16.962;2023-03-03T08:21:18;33.80;;;15.70;;
73678;SDS011;61978;52.742;16.962;2023-03-03T08:23:44;41.10;;;21.10;;
73678;SDS011;61978;52.742;16.962;2023-03-03T08:26:10;55.10;;;26.00;;
73678;SDS011;61978;52.742;16.962;2023-03-03T08:28:38;45.80;;;17.10;;
73678;SDS011;61978;52.742;16.962;2023-03-03T08:31:04;43.60;;;18.30;;
73678;SDS011;61978;52.742;16.962;2023-03-03T08:33:29;70.70;;;25.70;;
73678;SDS011;61978;52.742;16.962;2023-03-03T08:35:55;52.40;;;19.20;;
73678;SDS011;61978;52.742;16.962;2023-03-03T08:38:21;82.60;;;28.10;;
73678;SDS011;61978;52.742;16.962;2023-03-03T08:40:47;73.30;;;24.00;;
73678;SDS011;61978;52.742;16.962;2023-03-03T08:43:13;74.80;;;24.40;;
73678;SDS011;61978;52.742;16.962;2023-03-03T08:45:43;58.30;;;20.00;;
73678;SDS011;61978;52.742;16.962;2023-03-03T08:48:09;71.20;;;23.00;;
73678;SDS011;61978;52.742;16.962;2023-03-03T08:50:35;56.00;;;18.50;;
73678;SDS011;61978;52.742;16.962;2023-03-03T08:53:02;57.80;;;23.20;;
73678;SDS011;61978;52.742;16.962;2023-03-03T08:55:28;63.60;;;27.60;;
73678;SDS011;61978;52.742;16.962;2023-03-03T08:57:54;62.90;;;22.00;;
73678;SDS011;61978;52.742;16.962;2023-03-03T09:00:21;50.20;;;19.30;;
73678;SDS011;61978;52.742;16.962;2023-03-03T09:02:47;67.00;;;20.60;;
73678;SDS011;61978;52.742;16.962;2023-03-03T09:05:15;66.60;;;24.30;;
73678;SDS011;61978;52.742;16.962;2023-03-03T09:07:42;62.70;;;23.80;;
73678;SDS011;61978;52.742;16.962;2023-03-03T09:10:09;75.00;;;28.20;;
73678;SDS011;61978;52.742;16.962;2023-03-03T09:12:37;39.80;;;14.80;;
73678;SDS011;61978;52.742;16.962;2023-03-03T09:17:39;48.40;;;18.30;;
73678;SDS011;61978;52.742;16.962;2023-03-03T09:22:40;41.50;;;18.10;;
73678;SDS011;61978;52.742;16.962;2023-03-03T09:25:13;41.30;;;16.20;;
73678;SDS011;61978;52.742;16.962;2023-03-03T09:27:43;40.70;;;17.80;;
73678;SDS011;61978;52.742;16.962;2023-03-03T09:32:38;35.40;;;16.90;;
73678;SDS011;61978;52.742;16.962;2023-03-03T09:37:49;24.70;;;12.40;;
73678;SDS011;61978;52.742;16.962;2023-03-03T09:40:30;37.00;;;15.80;;
73678;SDS011;61978;52.742;16.962;2023-03-03T09:43:06;41.90;;;18.50;;
73678;SDS011;61978;52.742;16.962;2023-03-03T09:48:18;37.90;;;17.40;;
73678;SDS011;61978;52.742;16.962;2023-03-03T09:51:08;40.40;;;16.70;;
73678;SDS011;61978;52.742;16.962;2023-03-03T09:53:50;40.40;;;16.20;;
73678;SDS011;61978;52.742;16.962;2023-03-03T10:09:58;49.70;;;20.00;;
73678;SDS011;61978;52.742;16.962;2023-03-03T10:17:33;42.90;;;17.70;;
73678;SDS011;61978;52.742;16.962;2023-03-03T10:28:38;61.30;;;24.70;;
73678;SDS011;61978;52.742;16.962;2023-03-03T10:42:04;40.70;;;15.00;;
73678;SDS011;61978;52.742;16.962;2023-03-03T10:54:57;33.20;;;14.90;;
73678;SDS011;61978;52.742;16.962;2023-03-03T11:05:26;37.90;;;18.10;;
73678;SDS011;61978;52.742;16.962;2023-03-03T11:08:08;38.60;;;19.60;;
73678;SDS011;61978;52.742;16.962;2023-03-03T11:28:44;23.70;;;11.40;;
73678;SDS011;61978;52.742;16.962;2023-03-03T11:34:11;23.60;;;12.60;;
73678;SDS011;61978;52.742;16.962;2023-03-03T11:36:48;23.90;;;12.90;;
73678;SDS011;61978;52.742;16.962;2023-03-03T11:39:21;28.50;;;16.00;;
73678;SDS011;61978;52.742;16.962;2023-03-03T11:46:50;23.80;;;13.00;;
73678;SDS011;61978;52.742;16.962;2023-03-03T11:49:20;22.80;;;12.90;;
73678;SDS011;61978;52.742;16.962;2023-03-03T11:54:37;20.80;;;13.50;;
73678;SDS011;61978;52.742;16.962;2023-03-03T11:59:53;21.70;;;12.40;;
73678;SDS011;61978;52.742;16.962;2023-03-03T12:04:51;20.10;;;12.40;;
73678;SDS011;61978;52.742;16.962;2023-03-03T12:07:28;26.30;;;14.20;;
73678;SDS011;61978;52.742;16.962;2023-03-03T12:12:22;18.00;;;9.70;;
73678;SDS011;61978;52.742;16.962;2023-03-03T12:14:52;20.20;;;10.70;;
73678;SDS011;61978;52.742;16.962;2023-03-03T12:22:30;23.30;;;12.70;;
73678;SDS011;61978;52.742;16.962;2023-03-03T12:25:02;20.80;;;12.90;;
73678;SDS011;61978;52.742;16.962;2023-03-03T12:33:26;20.00;;;12.80;;
73678;SDS011;61978;52.742;16.962;2023-03-03T12:35:59;19.00;;;11.20;;
73678;SDS011;61978;52.742;16.962;2023-03-03T12:38:44;25.50;;;15.70;;
73678;SDS011;61978;52.742;16.962;2023-03-03T12:41:18;16.50;;;11.10;;
73678;SDS011;61978;52.742;16.962;2023-03-03T12:43:54;38.30;;;26.00;;
73678;SDS011;61978;52.742;16.962;2023-03-03T12:48:49;23.20;;;14.20;;
73678;SDS011;61978;52.742;16.962;2023-03-03T12:51:36;18.90;;;11.00;;
73678;SDS011;61978;52.742;16.962;2023-03-03T12:56:49;26.50;;;16.20;;
73678;SDS011;61978;52.742;16.962;2023-03-03T13:02:03;22.00;;;13.20;;
73678;SDS011;61978;52.742;16.962;2023-03-03T13:04:35;20.80;;;12.00;;
73678;SDS011;61978;52.742;16.962;2023-03-03T13:09:38;33.00;;;15.90;;
73678;SDS011;61978;52.742;16.962;2023-03-03T13:14:59;25.10;;;15.10;;
73678;SDS011;61978;52.742;16.962;2023-03-03T13:17:48;27.70;;;14.10;;
73678;SDS011;61978;52.742;16.962;2023-03-03T13:23:05;26.30;;;13.60;;
73678;SDS011;61978;52.742;16.962;2023-03-03T13:28:00;34.60;;;19.80;;
73678;SDS011;61978;52.742;16.962;2023-03-03T13:30:31;49.20;;;29.30;;
73678;SDS011;61978;52.742;16.962;2023-03-03T13:33:11;32.00;;;18.40;;
73678;SDS011;61978;52.742;16.962;2023-03-03T13:38:04;40.50;;;20.90;;
73678;SDS011;61978;52.742;16.962;2023-03-03T13:40:38;42.60;;;21.40;;
73678;SDS011;61978;52.742;16.962;2023-03-03T13:43:11;51.80;;;22.30;;
73678;SDS011;61978;52.742;16.962;2023-03-03T13:57:54;31.70;;;18.00;;
73678;SDS011;61978;52.742;16.962;2023-03-03T14:10:20;33.10;;;16.80;;
73678;SDS011;61978;52.742;16.962;2023-03-03T14:15:25;35.40;;;18.50;;
73678;SDS011;61978;52.742;16.962;2023-03-03T14:18:09;38.50;;;18.60;;
73678;SDS011;61978;52.742;16.962;2023-03-03T14:20:46;39.90;;;19.30;;
73678;SDS011;61978;52.742;16.962;2023-03-03T14:23:16;36.10;;;18.80;;
73678;SDS011;61978;52.742;16.962;2023-03-03T14:28:25;35.80;;;18.50;;
73678;SDS011;61978;52.742;16.962;2023-03-03T14:30:55;36.30;;;20.00;;
73678;SDS011;61978;52.742;16.962;2023-03-03T14:33:26;34.00;;;19.40;;
73678;SDS011;61978;52.742;16.962;2023-03-03T14:38:24;32.00;;;18.60;;
73678;SDS011;61978;52.742;16.962;2023-03-03T14:41:09;28.20;;;17.20;;
73678;SDS011;61978;52.742;16.962;2023-03-03T14:43:38;26.20;;;15.60;;
73678;SDS011;61978;52.742;16.962;2023-03-03T14:48:49;25.10;;;16.20;;
73678;SDS011;61978;52.742;16.962;2023-03-03T14:51:22;27.10;;;16.50;;
73678;SDS011;61978;52.742;16.962;2023-03-03T14:53:49;28.80;;;15.80;;
73678;SDS011;61978;52.742;16.962;2023-03-03T14:58:42;30.40;;;17.20;;
73678;SDS011;61978;52.742;16.962;2023-03-03T15:01:16;47.70;;;36.60;;
73678;SDS011;61978;52.742;16.962;2023-03-03T15:04:32;37.50;;;27.70;;
73678;SDS011;61978;52.742;16.962;2023-03-03T15:06:33;40.10;;;24.50;;
73678;SDS011;61978;52.742;16.962;2023-03-03T15:11:43;29.70;;;16.30;;
73678;SDS011;61978;52.742;16.962;2023-03-03T15:14:15;34.60;;;18.40;;
73678;SDS011;61978;52.742;16.962;2023-03-03T15:16:42;38.10;;;19.30;;
73678;SDS011;61978;52.742;16.962;2023-03-03T15:24:41;29.10;;;14.70;;
73678;SDS011;61978;52.742;16.962;2023-03-03T15:30:10;37.30;;;19.60;;
73678;SDS011;61978;52.742;16.962;2023-03-03T15:32:48;42.40;;;22.50;;
73678;SDS011;61978;52.742;16.962;2023-03-03T15:36:19;39.90;;;20.20;;
73678;SDS011;61978;52.742;16.962;2023-03-03T15:45:49;33.30;;;16.70;;
73678;SDS011;61978;52.742;16.962;2023-03-03T15:50:47;31.50;;;14.80;;
73678;SDS011;61978;52.742;16.962;2023-03-03T15:53:33;43.10;;;20.30;;
73678;SDS011;61978;52.742;16.962;2023-03-03T16:01:12;45.40;;;21.80;;
73678;SDS011;61978;52.742;16.962;2023-03-03T16:03:41;51.80;;;23.90;;
73678;SDS011;61978;52.742;16.962;2023-03-03T16:06:36;48.60;;;22.60;;
73678;SDS011;61978;52.742;16.962;2023-03-03T16:09:01;42.90;;;20.10;;
73678;SDS011;61978;52.742;16.962;2023-03-03T16:14:22;51.20;;;25.60;;
73678;SDS011;61978;52.742;16.962;2023-03-03T16:19:26;44.10;;;23.60;;
73678;SDS011;61978;52.742;16.962;2023-03-03T16:22:02;52.10;;;27.50;;
73678;SDS011;61978;52.742;16.962;2023-03-03T16:26:59;46.50;;;27.50;;
73678;SDS011;61978;52.742;16.962;2023-03-03T16:37:50;36.20;;;19.40;;
73678;SDS011;61978;52.742;16.962;2023-03-03T16:40:20;38.30;;;20.20;;
73678;SDS011;61978;52.742;16.962;2023-03-03T16:42:50;40.60;;;21.60;;
73678;SDS011;61978;52.742;16.962;2023-03-03T16:45:34;31.00;;;14.80;;
73678;SDS011;61978;52.742;16.962;2023-03-03T16:50:53;33.80;;;18.60;;
73678;SDS011;61978;52.742;16.962;2023-03-03T16:53:25;34.40;;;19.70;;
73678;SDS011;61978;52.742;16.962;2023-03-03T16:56:01;34.40;;;18.10;;
73678;SDS011;61978;52.742;16.962;2023-03-03T17:01:02;69.20;;;42.10;;
73678;SDS011;61978;52.742;16.962;2023-03-03T17:03:43;32.30;;;20.10;;
73678;SDS011;61978;52.742;16.962;2023-03-03T17:09:28;28.70;;;16.00;;
73678;SDS011;61978;52.742;16.962;2023-03-03T17:16:55;31.20;;;19.00;;
73678;SDS011;61978;52.742;16.962;2023-03-03T17:24:55;44.30;;;23.20;;
73678;SDS011;61978;52.742;16.962;2023-03-03T17:43:16;34.20;;;20.40;;
73678;SDS011;61978;52.742;16.962;2023-03-03T17:45:45;35.60;;;21.10;;
73678;SDS011;61978;52.742;16.962;2023-03-03T17:54:10;28.70;;;17.80;;
73678;SDS011;61978;52.742;16.962;2023-03-03T18:04:00;34.20;;;22.10;;
73678;SDS011;61978;52.742;16.962;2023-03-03T18:09:18;32.90;;;21.70;;
73678;SDS011;61978;52.742;16.962;2023-03-03T18:14:27;35.90;;;24.20;;
73678;SDS011;61978;52.742;16.962;2023-03-03T18:24:59;26.80;;;18.20;;
73678;SDS011;61978;52.742;16.962;2023-03-03T18:27:27;290.50;;;171.80;;
73678;SDS011;61978;52.742;16.962;2023-03-03T18:33:08;24.90;;;17.50;;
73678;SDS011;61978;52.742;16.962;2023-03-03T18:37:52;27.50;;;19.80;;
73678;SDS011;61978;52.742;16.962;2023-03-03T18:40:29;27.20;;;18.90;;
73678;SDS011;61978;52.742;16.962;2023-03-03T18:42:56;32.30;;;22.70;;
73678;SDS011;61978;52.742;16.962;2023-03-03T18:55:46;34.40;;;21.70;;
73678;SDS011;61978;52.742;16.962;2023-03-03T18:58:23;27.90;;;20.20;;
73678;SDS011;61978;52.742;16.962;2023-03-03T19:06:04;29.90;;;20.90;;
73678;SDS011;61978;52.742;16.962;2023-03-03T19:08:52;25.60;;;17.00;;
73678;SDS011;61978;52.742;16.962;2023-03-03T19:16:55;31.20;;;20.70;;
73678;SDS011;61978;52.742;16.962;2023-03-03T19:19:22;30.10;;;19.90;;
73678;SDS011;61978;52.742;16.962;2023-03-03T19:21:50;24.70;;;17.70;;
73678;SDS011;61978;52.742;16.962;2023-03-03T19:24:32;28.20;;;20.20;;
73678;SDS011;61978;52.742;16.962;2023-03-03T19:27:06;28.60;;;18.10;;
73678;SDS011;61978;52.742;16.962;2023-03-03T19:29:41;27.90;;;19.10;;
73678;SDS011;61978;52.742;16.962;2023-03-03T19:55:52;35.70;;;22.40;;
73678;SDS011;61978;52.742;16.962;2023-03-03T19:58:28;32.50;;;21.30;;
73678;SDS011;61978;52.742;16.962;2023-03-03T20:06:19;37.50;;;23.10;;
73678;SDS011;61978;52.742;16.962;2023-03-03T20:08:53;32.70;;;21.30;;
73678;SDS011;61978;52.742;16.962;2023-03-03T20:19:58;30.60;;;20.60;;
73678;SDS011;61978;52.742;16.962;2023-03-03T20:22:39;30.20;;;18.10;;
73678;SDS011;61978;52.742;16.962;2023-03-03T20:25:24;129.10;;;88.30;;